sensor_id;sensor_type;location;lat;lon;timestamp;pressure;altitude;pressure_sealevel;temperature;humidity
39681;BME280;26327;42.550;23.120;2024-01-30T00:00:02;94508.09;;;-1.06;84.00
39681;BME280;26327;42.550;23.120;2024-01-30T00:02:29;94550.50;;;-0.84;84.16
39681;BME280;26327;42.550;23.120;2024-01-30T00:04:54;94565.75;;;-0.83;85.33
39681;BME280;26327;42.550;23.120;2024-01-30T00:07:19;94510.53;;;-1.21;85.57
39681;BME280;26327;42.550;23.120;2024-01-30T00:09:46;94542.63;;;-0.99;84.64
39681;BME280;26327;42.550;23.120;2024-01-30T00:12:13;94575.13;;;-0.83;85.30
39681;BME280;26327;42.550;23.120;2024-01-30T00:14:38;94572.03;;;-0.90;85.78
39681;BME280;26327;42.550;23.120;2024-01-30T00:17:03;94572.34;;;-0.98;86.18
39681;BME280;26327;42.550;23.120;2024-01-30T00:19:29;94510.47;;;-1.20;84.78
39681;BME280;26327;42.550;23.120;2024-01-30T00:21:54;94566.09;;;-0.90;85.56
39681;BME280;26327;42.550;23.120;2024-01-30T00:24:20;94509.06;;;-1.46;86.11
39681;BME280;26327;42.550;23.120;2024-01-30T00:26:45;94459.25;;;-1.72;86.41
39681;BME280;26327;42.550;23.120;2024-01-30T00:29:10;94506.41;;;-1.24;85.68
39681;BME280;26327;42.550;23.120;2024-01-30T00:31:36;94567.88;;;-0.92;85.90
39681;BME280;26327;42.550;23.120;2024-01-30T00:34:01;94567.03;;;-1.12;86.43
39681;BME280;26327;42.550;23.120;2024-01-30T00:36:27;94561.88;;;-1.10;85.62
39681;BME280;26327;42.550;23.120;2024-01-30T00:38:55;94552.44;;;-1.08;86.03
39681;BME280;26327;42.550;23.120;2024-01-30T00:41:20;94553.53;;;-1.14;85.72
39681;BME280;26327;42.550;23.120;2024-01-30T00:43:46;94517.75;;;-1.50;86.19
39681;BME280;26327;42.550;23.120;2024-01-30T00:46:11;94491.50;;;-1.52;85.83
39681;BME280;26327;42.550;23.120;2024-01-30T00:48:36;94490.31;;;-1.45;85.22
39681;BME280;26327;42.550;23.120;2024-01-30T00:51:02;94568.78;;;-1.12;85.31
39681;BME280;26327;42.550;23.120;2024-01-30T00:53:27;94564.06;;;-1.03;85.16
39681;BME280;26327;42.550;23.120;2024-01-30T00:55:53;94501.84;;;-1.55;85.59
39681;BME280;26327;42.550;23.120;2024-01-30T00:58:18;94495.69;;;-1.51;85.09
39681;BME280;26327;42.550;23.120;2024-01-30T01:00:44;94566.16;;;-1.30;86.24
39681;BME280;26327;42.550;23.120;2024-01-30T01:03:09;94563.94;;;-1.18;85.99
39681;BME280;26327;42.550;23.120;2024-01-30T01:05:35;94559.59;;;-1.16;84.97
39681;BME280;26327;42.550;23.120;2024-01-30T01:08:00;94571.13;;;-1.27;86.30
39681;BME280;26327;42.550;23.120;2024-01-30T01:10:26;94554.78;;;-1.22;85.43
39681;BME280;26327;42.550;23.120;2024-01-30T01:12:52;94484.25;;;-1.80;86.27
39681;BME280;26327;42.550;23.120;2024-01-30T01:15:17;94499.63;;;-1.81;86.71
39681;BME280;26327;42.550;23.120;2024-01-30T01:17:43;94534.63;;;-1.66;86.69
39681;BME280;26327;42.550;23.120;2024-01-30T01:20:08;94560.06;;;-1.46;86.66
39681;BME280;26327;42.550;23.120;2024-01-30T01:22:36;94553.44;;;-1.50;86.66
39681;BME280;26327;42.550;23.120;2024-01-30T01:25:03;94540.13;;;-1.56;87.05
39681;BME280;26327;42.550;23.120;2024-01-30T01:27:29;94532.16;;;-1.49;86.51
39681;BME280;26327;42.550;23.120;2024-01-30T01:29:54;94428.44;;;-2.05;86.55
39681;BME280;26327;42.550;23.120;2024-01-30T01:32:19;94489.50;;;-1.64;86.25
39681;BME280;26327;42.550;23.120;2024-01-30T01:34:45;94561.75;;;-1.26;85.53
39681;BME280;26327;42.550;23.120;2024-01-30T01:37:10;94547.00;;;-1.19;84.74
39681;BME280;26327;42.550;23.120;2024-01-30T01:39:36;94491.22;;;-1.65;85.41
39681;BME280;26327;42.550;23.120;2024-01-30T01:42:01;94486.88;;;-1.63;85.15
39681;BME280;26327;42.550;23.120;2024-01-30T01:44:27;94538.00;;;-1.47;86.78
39681;BME280;26327;42.550;23.120;2024-01-30T01:46:54;94543.03;;;-1.45;85.40
39681;BME280;26327;42.550;23.120;2024-01-30T01:49:19;94483.16;;;-1.74;85.20
39681;BME280;26327;42.550;23.120;2024-01-30T01:51:47;94492.13;;;-1.66;85.04
39681;BME280;26327;42.550;23.120;2024-01-30T01:54:14;94554.84;;;-1.24;85.03
39681;BME280;26327;42.550;23.120;2024-01-30T01:56:40;94543.84;;;-1.45;85.35
39681;BME280;26327;42.550;23.120;2024-01-30T01:59:07;94553.97;;;-1.23;85.32
39681;BME280;26327;42.550;23.120;2024-01-30T02:01:33;94538.78;;;-1.26;85.53
39681;BME280;26327;42.550;23.120;2024-01-30T02:04:00;94556.56;;;-1.24;85.94
39681;BME280;26327;42.550;23.120;2024-01-30T02:06:26;94531.34;;;-1.31;84.87
39681;BME280;26327;42.550;23.120;2024-01-30T02:08:52;94551.41;;;-1.23;84.48
39681;BME280;26327;42.550;23.120;2024-01-30T02:11:18;94540.09;;;-1.36;85.50
39681;BME280;26327;42.550;23.120;2024-01-30T02:13:45;94542.59;;;-1.35;86.33
39681;BME280;26327;42.550;23.120;2024-01-30T02:16:10;94506.16;;;-1.57;85.94
39681;BME280;26327;42.550;23.120;2024-01-30T02:18:35;94556.81;;;-1.49;85.28
39681;BME280;26327;42.550;23.120;2024-01-30T02:21:04;94539.09;;;-1.52;85.90
39681;BME280;26327;42.550;23.120;2024-01-30T02:23:30;94545.44;;;-1.42;85.68
39681;BME280;26327;42.550;23.120;2024-01-30T02:25:55;94520.28;;;-1.50;85.66
39681;BME280;26327;42.550;23.120;2024-01-30T02:28:21;94508.84;;;-1.60;85.89
39681;BME280;26327;42.550;23.120;2024-01-30T02:30:46;94541.25;;;-1.43;85.81
39681;BME280;26327;42.550;23.120;2024-01-30T02:33:13;94526.75;;;-1.62;85.61
39681;BME280;26327;42.550;23.120;2024-01-30T02:35:38;94526.56;;;-1.57;86.45
39681;BME280;26327;42.550;23.120;2024-01-30T02:38:04;94537.19;;;-1.47;85.72
39681;BME280;26327;42.550;23.120;2024-01-30T02:40:30;94458.88;;;-2.02;85.00
39681;BME280;26327;42.550;23.120;2024-01-30T02:42:56;94537.91;;;-1.64;85.36
39681;BME280;26327;42.550;23.120;2024-01-30T02:45:21;94559.44;;;-1.51;84.97
39681;BME280;26327;42.550;23.120;2024-01-30T02:47:46;94473.47;;;-2.05;84.15
39681;BME280;26327;42.550;23.120;2024-01-30T02:50:12;94532.03;;;-1.85;84.33
39681;BME280;26327;42.550;23.120;2024-01-30T02:52:38;94547.19;;;-1.82;85.26
39681;BME280;26327;42.550;23.120;2024-01-30T02:55:04;94552.66;;;-1.71;85.40
39681;BME280;26327;42.550;23.120;2024-01-30T02:57:29;94549.50;;;-1.57;85.25
39681;BME280;26327;42.550;23.120;2024-01-30T02:59:55;94538.25;;;-1.72;86.03
39681;BME280;26327;42.550;23.120;2024-01-30T03:02:20;94468.78;;;-1.96;84.52
39681;BME280;26327;42.550;23.120;2024-01-30T03:04:46;94552.38;;;-1.65;84.94
39681;BME280;26327;42.550;23.120;2024-01-30T03:07:12;94476.88;;;-2.25;85.85
39681;BME280;26327;42.550;23.120;2024-01-30T03:09:37;94546.31;;;-1.81;85.12
39681;BME280;26327;42.550;23.120;2024-01-30T03:12:03;94531.97;;;-2.04;85.99
39681;BME280;26327;42.550;23.120;2024-01-30T03:14:32;94477.47;;;-2.81;88.47
39681;BME280;26327;42.550;23.120;2024-01-30T03:16:58;94481.03;;;-2.65;88.08
39681;BME280;26327;42.550;23.120;2024-01-30T03:19:23;94412.94;;;-3.21;88.00
39681;BME280;26327;42.550;23.120;2024-01-30T03:21:49;94464.91;;;-2.86;88.27
39681;BME280;26327;42.550;23.120;2024-01-30T03:24:15;94399.41;;;-3.21;87.77
39681;BME280;26327;42.550;23.120;2024-01-30T03:26:40;94481.47;;;-2.75;87.54
39681;BME280;26327;42.550;23.120;2024-01-30T03:29:05;94463.22;;;-3.07;88.51
39681;BME280;26327;42.550;23.120;2024-01-30T03:31:31;94500.06;;;-2.73;88.21
39681;BME280;26327;42.550;23.120;2024-01-30T03:33:57;94518.72;;;-2.53;87.61
39681;BME280;26327;42.550;23.120;2024-01-30T03:36:22;94541.00;;;-2.79;86.88
39681;BME280;26327;42.550;23.120;2024-01-30T03:38:47;94486.22;;;-3.10;88.35
39681;BME280;26327;42.550;23.120;2024-01-30T03:41:13;94536.94;;;-2.85;88.48
39681;BME280;26327;42.550;23.120;2024-01-30T03:43:38;94467.00;;;-3.39;88.72
39681;BME280;26327;42.550;23.120;2024-01-30T03:46:03;94467.13;;;-3.42;88.59
39681;BME280;26327;42.550;23.120;2024-01-30T03:48:29;94544.28;;;-3.21;90.00
39681;BME280;26327;42.550;23.120;2024-01-30T03:50:55;94528.69;;;-3.12;90.00
39681;BME280;26327;42.550;23.120;2024-01-30T03:53:20;94452.03;;;-3.46;90.13
39681;BME280;26327;42.550;23.120;2024-01-30T03:55:45;94532.59;;;-2.81;88.90
39681;BME280;26327;42.550;23.120;2024-01-30T03:58:11;94468.81;;;-3.64;90.02
39681;BME280;26327;42.550;23.120;2024-01-30T04:00:36;94464.56;;;-3.42;89.59
39681;BME280;26327;42.550;23.120;2024-01-30T04:03:02;94522.69;;;-2.89;88.58
39681;BME280;26327;42.550;23.120;2024-01-30T04:05:28;94471.63;;;-3.27;89.20
39681;BME280;26327;42.550;23.120;2024-01-30T04:07:53;94530.06;;;-2.81;88.33
39681;BME280;26327;42.550;23.120;2024-01-30T04:10:18;94463.91;;;-3.47;88.83
39681;BME280;26327;42.550;23.120;2024-01-30T04:12:44;94450.63;;;-3.54;88.88
39681;BME280;26327;42.550;23.120;2024-01-30T04:15:09;94531.22;;;-2.90;89.67
39681;BME280;26327;42.550;23.120;2024-01-30T04:17:35;94543.06;;;-2.89;88.10
39681;BME280;26327;42.550;23.120;2024-01-30T04:20:00;94536.25;;;-2.89;87.72
39681;BME280;26327;42.550;23.120;2024-01-30T04:22:26;94531.56;;;-3.21;88.17
39681;BME280;26327;42.550;23.120;2024-01-30T04:24:51;94543.94;;;-3.12;88.70
39681;BME280;26327;42.550;23.120;2024-01-30T04:27:16;94548.00;;;-3.30;89.06
39681;BME280;26327;42.550;23.120;2024-01-30T04:29:42;94482.44;;;-3.90;89.84
39681;BME280;26327;42.550;23.120;2024-01-30T04:32:09;94554.13;;;-3.35;89.55
39681;BME280;26327;42.550;23.120;2024-01-30T04:34:36;94531.03;;;-3.29;88.05
39681;BME280;26327;42.550;23.120;2024-01-30T04:37:01;94565.34;;;-3.41;89.68
39681;BME280;26327;42.550;23.120;2024-01-30T04:39:27;94483.63;;;-3.75;88.80
39681;BME280;26327;42.550;23.120;2024-01-30T04:41:52;94505.47;;;-3.71;89.04
39681;BME280;26327;42.550;23.120;2024-01-30T04:44:17;94573.78;;;-3.17;88.77
39681;BME280;26327;42.550;23.120;2024-01-30T04:46:43;94555.88;;;-3.37;90.19
39681;BME280;26327;42.550;23.120;2024-01-30T04:49:08;94559.38;;;-3.40;90.22
39681;BME280;26327;42.550;23.120;2024-01-30T04:51:34;94512.84;;;-3.89;90.45
39681;BME280;26327;42.550;23.120;2024-01-30T04:53:59;94573.91;;;-3.43;90.75
39681;BME280;26327;42.550;23.120;2024-01-30T04:56:24;94558.53;;;-3.40;90.10
39681;BME280;26327;42.550;23.120;2024-01-30T04:58:50;94515.50;;;-3.92;89.95
39681;BME280;26327;42.550;23.120;2024-01-30T05:01:16;94558.50;;;-3.62;90.70
39681;BME280;26327;42.550;23.120;2024-01-30T05:03:41;94559.75;;;-3.51;90.63
39681;BME280;26327;42.550;23.120;2024-01-30T05:06:07;94514.25;;;-3.57;89.49
39681;BME280;26327;42.550;23.120;2024-01-30T05:08:32;94507.09;;;-3.69;89.17
39681;BME280;26327;42.550;23.120;2024-01-30T05:11:00;94524.47;;;-3.58;88.79
39681;BME280;26327;42.550;23.120;2024-01-30T05:13:25;94452.63;;;-3.85;87.22
39681;BME280;26327;42.550;23.120;2024-01-30T05:15:51;94570.72;;;-3.25;87.11
39681;BME280;26327;42.550;23.120;2024-01-30T05:18:16;94529.88;;;-3.67;87.78
39681;BME280;26327;42.550;23.120;2024-01-30T05:20:42;94588.66;;;-3.30;87.87
39681;BME280;26327;42.550;23.120;2024-01-30T05:23:07;94519.94;;;-3.73;86.62
39681;BME280;26327;42.550;23.120;2024-01-30T05:25:33;94586.00;;;-3.73;88.37
39681;BME280;26327;42.550;23.120;2024-01-30T05:27:58;94579.31;;;-3.76;88.74
39681;BME280;26327;42.550;23.120;2024-01-30T05:30:24;94565.78;;;-3.76;88.18
39681;BME280;26327;42.550;23.120;2024-01-30T05:32:49;94575.88;;;-3.75;88.68
39681;BME280;26327;42.550;23.120;2024-01-30T05:35:14;94514.34;;;-4.06;89.25
39681;BME280;26327;42.550;23.120;2024-01-30T05:37:40;94507.38;;;-4.26;88.64
39681;BME280;26327;42.550;23.120;2024-01-30T05:40:07;94512.53;;;-4.53;90.70
39681;BME280;26327;42.550;23.120;2024-01-30T05:42:33;94578.69;;;-4.07;90.74
39681;BME280;26327;42.550;23.120;2024-01-30T05:44:58;94522.38;;;-4.19;90.21
39681;BME280;26327;42.550;23.120;2024-01-30T05:47:23;94584.16;;;-3.95;90.07
39681;BME280;26327;42.550;23.120;2024-01-30T05:49:49;94582.34;;;-4.16;92.09
39681;BME280;26327;42.550;23.120;2024-01-30T05:52:14;94593.53;;;-3.97;91.57
39681;BME280;26327;42.550;23.120;2024-01-30T05:54:40;94561.34;;;-4.20;91.80
39681;BME280;26327;42.550;23.120;2024-01-30T05:57:06;94596.44;;;-3.83;90.11
39681;BME280;26327;42.550;23.120;2024-01-30T05:59:31;94505.41;;;-4.68;91.93
39681;BME280;26327;42.550;23.120;2024-01-30T06:01:57;94594.22;;;-4.17;91.69
39681;BME280;26327;42.550;23.120;2024-01-30T06:04:23;94509.34;;;-4.59;92.45
39681;BME280;26327;42.550;23.120;2024-01-30T06:06:48;94527.38;;;-4.42;92.97
39681;BME280;26327;42.550;23.120;2024-01-30T06:09:14;94590.94;;;-3.95;93.24
39681;BME280;26327;42.550;23.120;2024-01-30T06:11:39;94508.53;;;-4.35;92.58
39681;BME280;26327;42.550;23.120;2024-01-30T06:14:04;94557.16;;;-3.97;92.18
39681;BME280;26327;42.550;23.120;2024-01-30T06:16:30;94518.75;;;-4.12;91.68
39681;BME280;26327;42.550;23.120;2024-01-30T06:18:56;94551.66;;;-4.35;92.34
39681;BME280;26327;42.550;23.120;2024-01-30T06:21:21;94595.56;;;-4.06;93.37
39681;BME280;26327;42.550;23.120;2024-01-30T06:23:46;94595.25;;;-3.72;92.25
39681;BME280;26327;42.550;23.120;2024-01-30T06:26:12;94514.22;;;-4.28;92.88
39681;BME280;26327;42.550;23.120;2024-01-30T06:28:37;94530.56;;;-3.87;92.03
39681;BME280;26327;42.550;23.120;2024-01-30T06:31:03;94531.81;;;-3.74;91.40
39681;BME280;26327;42.550;23.120;2024-01-30T06:33:28;94532.06;;;-3.82;91.82
39681;BME280;26327;42.550;23.120;2024-01-30T06:35:53;94535.69;;;-3.64;90.29
39681;BME280;26327;42.550;23.120;2024-01-30T06:38:19;94580.97;;;-3.52;91.83
39681;BME280;26327;42.550;23.120;2024-01-30T06:40:44;94528.47;;;-3.74;90.73
39681;BME280;26327;42.550;23.120;2024-01-30T06:43:10;94603.91;;;-3.30;92.33
39681;BME280;26327;42.550;23.120;2024-01-30T06:45:36;94596.00;;;-3.22;90.62
39681;BME280;26327;42.550;23.120;2024-01-30T06:48:02;94578.03;;;-3.41;91.86
39681;BME280;26327;42.550;23.120;2024-01-30T06:50:28;94598.31;;;-3.16;92.31
39681;BME280;26327;42.550;23.120;2024-01-30T06:52:53;94606.00;;;-3.41;93.60
39681;BME280;26327;42.550;23.120;2024-01-30T06:55:19;94587.03;;;-3.32;93.59
39681;BME280;26327;42.550;23.120;2024-01-30T06:57:44;94511.13;;;-3.63;92.96
39681;BME280;26327;42.550;23.120;2024-01-30T07:00:10;94537.78;;;-3.28;93.06
39681;BME280;26327;42.550;23.120;2024-01-30T07:02:35;94535.53;;;-3.14;91.52
39681;BME280;26327;42.550;23.120;2024-01-30T07:05:01;94525.97;;;-3.07;91.45
39681;BME280;26327;42.550;23.120;2024-01-30T07:07:27;94536.91;;;-3.05;91.19
39681;BME280;26327;42.550;23.120;2024-01-30T07:09:54;94597.59;;;-2.53;91.91
39681;BME280;26327;42.550;23.120;2024-01-30T07:12:22;94524.34;;;-2.66;91.16
39681;BME280;26327;42.550;23.120;2024-01-30T07:14:48;94529.84;;;-2.55;90.57
39681;BME280;26327;42.550;23.120;2024-01-30T07:17:13;94577.38;;;-2.13;90.10
39681;BME280;26327;42.550;23.120;2024-01-30T07:23:09;94531.53;;;-2.34;86.96
39681;BME280;26327;42.550;23.120;2024-01-30T07:25:36;94538.59;;;-2.20;86.75
39681;BME280;26327;42.550;23.120;2024-01-30T07:28:01;94502.38;;;-2.47;87.53
39681;BME280;26327;42.550;23.120;2024-01-30T07:30:27;94553.81;;;-2.18;87.31
39681;BME280;26327;42.550;23.120;2024-01-30T07:32:52;94591.50;;;-1.66;87.12
39681;BME280;26327;42.550;23.120;2024-01-30T07:35:18;94577.81;;;-1.63;85.99
39681;BME280;26327;42.550;23.120;2024-01-30T07:37:43;94548.91;;;-1.82;84.50
39681;BME280;26327;42.550;23.120;2024-01-30T07:40:09;94578.94;;;-1.50;84.20
39681;BME280;26327;42.550;23.120;2024-01-30T07:42:34;94591.09;;;-1.56;85.36
39681;BME280;26327;42.550;23.120;2024-01-30T07:45:00;94524.75;;;-1.74;84.48
39681;BME280;26327;42.550;23.120;2024-01-30T07:47:26;94579.16;;;-1.75;85.12
39681;BME280;26327;42.550;23.120;2024-01-30T07:49:51;94540.31;;;-1.80;84.85
39681;BME280;26327;42.550;23.120;2024-01-30T07:52:17;94505.47;;;-1.79;85.01
39681;BME280;26327;42.550;23.120;2024-01-30T07:54:49;94503.81;;;-1.80;84.82
39681;BME280;26327;42.550;23.120;2024-01-30T07:57:15;94554.72;;;-1.40;83.76
39681;BME280;26327;42.550;23.120;2024-01-30T07:59:44;94571.72;;;-1.21;83.59
39681;BME280;26327;42.550;23.120;2024-01-30T08:02:11;94488.53;;;-1.62;82.28
39681;BME280;26327;42.550;23.120;2024-01-30T08:04:37;94557.81;;;-1.33;82.13
39681;BME280;26327;42.550;23.120;2024-01-30T08:07:02;94573.66;;;-1.08;81.57
39681;BME280;26327;42.550;23.120;2024-01-30T08:09:28;94574.00;;;-0.97;82.17
39681;BME280;26327;42.550;23.120;2024-01-30T08:11:53;94508.81;;;-1.21;79.94
39681;BME280;26327;42.550;23.120;2024-01-30T08:14:19;94528.03;;;-1.14;79.84
39681;BME280;26327;42.550;23.120;2024-01-30T08:16:44;94528.66;;;-0.90;79.42
39681;BME280;26327;42.550;23.120;2024-01-30T08:19:09;94565.94;;;-0.51;77.41
39681;BME280;26327;42.550;23.120;2024-01-30T08:21:35;94513.50;;;-0.76;75.95
39681;BME280;26327;42.550;23.120;2024-01-30T08:24:04;94577.50;;;-0.25;75.51
39681;BME280;26327;42.550;23.120;2024-01-30T08:26:31;94497.75;;;-0.49;77.41
39681;BME280;26327;42.550;23.120;2024-01-30T08:28:57;94519.88;;;-0.31;71.99
39681;BME280;26327;42.550;23.120;2024-01-30T08:31:22;94555.81;;;0.01;73.27
39681;BME280;26327;42.550;23.120;2024-01-30T08:33:48;94514.38;;;-0.06;69.98
39681;BME280;26327;42.550;23.120;2024-01-30T08:36:14;94578.22;;;0.46;70.02
39681;BME280;26327;42.550;23.120;2024-01-30T08:38:39;94511.38;;;0.03;68.56
39681;BME280;26327;42.550;23.120;2024-01-30T08:41:05;94520.44;;;0.26;64.93
39681;BME280;26327;42.550;23.120;2024-01-30T08:43:30;94576.22;;;0.68;68.51
39681;BME280;26327;42.550;23.120;2024-01-30T08:46:01;94544.19;;;0.61;65.67
39681;BME280;26327;42.550;23.120;2024-01-30T08:48:27;94496.69;;;0.73;63.54
39681;BME280;26327;42.550;23.120;2024-01-30T08:50:53;94513.47;;;1.10;62.32
39681;BME280;26327;42.550;23.120;2024-01-30T08:53:18;94520.63;;;1.50;60.64
39681;BME280;26327;42.550;23.120;2024-01-30T08:55:44;94564.25;;;1.95;57.05
39681;BME280;26327;42.550;23.120;2024-01-30T08:58:09;94517.91;;;1.68;57.72
39681;BME280;26327;42.550;23.120;2024-01-30T09:00:35;94577.56;;;2.60;56.10
39681;BME280;26327;42.550;23.120;2024-01-30T09:03:01;94515.78;;;2.77;53.31
39681;BME280;26327;42.550;23.120;2024-01-30T09:05:26;94561.66;;;4.45;49.35
39681;BME280;26327;42.550;23.120;2024-01-30T09:07:51;94558.25;;;6.86;40.38
39681;BME280;26327;42.550;23.120;2024-01-30T09:10:17;94521.44;;;8.57;37.91
39681;BME280;26327;42.550;23.120;2024-01-30T09:12:42;94490.22;;;10.17;34.05
39681;BME280;26327;42.550;23.120;2024-01-30T09:15:08;94502.00;;;10.87;31.93
39681;BME280;26327;42.550;23.120;2024-01-30T09:17:33;94499.25;;;11.90;30.67
39681;BME280;26327;42.550;23.120;2024-01-30T09:19:59;94528.13;;;12.15;30.06
39681;BME280;26327;42.550;23.120;2024-01-30T09:22:24;94496.34;;;10.16;30.98
39681;BME280;26327;42.550;23.120;2024-01-30T09:24:50;94551.94;;;8.21;33.97
39681;BME280;26327;42.550;23.120;2024-01-30T09:27:15;94555.66;;;6.17;38.52
39681;BME280;26327;42.550;23.120;2024-01-30T09:29:40;94515.78;;;5.50;40.52
39681;BME280;26327;42.550;23.120;2024-01-30T09:35:27;94543.97;;;9.57;34.19
39681;BME280;26327;42.550;23.120;2024-01-30T09:37:53;94482.16;;;10.10;31.66
39681;BME280;26327;42.550;23.120;2024-01-30T09:40:18;94502.22;;;10.66;30.61
39681;BME280;26327;42.550;23.120;2024-01-30T09:42:47;94526.28;;;11.52;30.30
39681;BME280;26327;42.550;23.120;2024-01-30T09:45:14;94479.59;;;11.68;29.04
39681;BME280;26327;42.550;23.120;2024-01-30T09:47:41;94530.66;;;12.07;28.67
39681;BME280;26327;42.550;23.120;2024-01-30T09:50:09;94509.59;;;12.79;28.20
39681;BME280;26327;42.550;23.120;2024-01-30T09:52:34;94468.34;;;13.35;27.13
39681;BME280;26327;42.550;23.120;2024-01-30T09:55:00;94518.94;;;13.84;27.23
39681;BME280;26327;42.550;23.120;2024-01-30T09:57:26;94524.41;;;14.23;26.94
39681;BME280;26327;42.550;23.120;2024-01-30T09:59:52;94502.47;;;14.08;28.40
39681;BME280;26327;42.550;23.120;2024-01-30T10:02:22;94465.72;;;13.93;27.49
39681;BME280;26327;42.550;23.120;2024-01-30T10:04:49;94504.75;;;13.95;27.46
39681;BME280;26327;42.550;23.120;2024-01-30T10:07:15;94496.13;;;15.00;27.44
39681;BME280;26327;42.550;23.120;2024-01-30T10:09:40;94505.66;;;14.76;26.82
39681;BME280;26327;42.550;23.120;2024-01-30T10:12:06;94505.91;;;14.00;27.11
39681;BME280;26327;42.550;23.120;2024-01-30T10:14:31;94508.94;;;14.78;27.12
39681;BME280;26327;42.550;23.120;2024-01-30T10:17:01;94515.09;;;14.21;27.60
39681;BME280;26327;42.550;23.120;2024-01-30T10:19:26;94501.13;;;13.79;27.60
39681;BME280;26327;42.550;23.120;2024-01-30T10:21:52;94499.31;;;13.72;27.56
39681;BME280;26327;42.550;23.120;2024-01-30T10:24:18;94498.44;;;13.63;27.70
39681;BME280;26327;42.550;23.120;2024-01-30T10:26:44;94444.91;;;13.67;27.45
39681;BME280;26327;42.550;23.120;2024-01-30T10:29:09;94501.81;;;13.98;28.08
39681;BME280;26327;42.550;23.120;2024-01-30T10:31:35;94503.97;;;14.18;27.79
39681;BME280;26327;42.550;23.120;2024-01-30T10:34:00;94465.22;;;13.81;26.80
39681;BME280;26327;42.550;23.120;2024-01-30T10:36:28;94453.84;;;14.56;26.74
39681;BME280;26327;42.550;23.120;2024-01-30T10:38:59;94510.13;;;15.39;25.72
39681;BME280;26327;42.550;23.120;2024-01-30T10:41:27;94518.72;;;15.72;25.18
39681;BME280;26327;42.550;23.120;2024-01-30T10:44:11;94468.06;;;14.77;25.47
39681;BME280;26327;42.550;23.120;2024-01-30T10:46:42;94504.00;;;14.92;25.88
39681;BME280;26327;42.550;23.120;2024-01-30T10:49:10;94507.13;;;14.87;25.98
39681;BME280;26327;42.550;23.120;2024-01-30T10:51:36;94427.38;;;14.42;25.79
39681;BME280;26327;42.550;23.120;2024-01-30T10:54:03;94485.94;;;13.83;26.24
39681;BME280;26327;42.550;23.120;2024-01-30T10:56:32;94431.91;;;13.75;26.38
39681;BME280;26327;42.550;23.120;2024-01-30T10:58:58;94491.88;;;14.99;25.19
39681;BME280;26327;42.550;23.120;2024-01-30T11:01:24;94434.53;;;14.16;26.40
39681;BME280;26327;42.550;23.120;2024-01-30T11:03:54;94492.06;;;14.40;26.22
39681;BME280;26327;42.550;23.120;2024-01-30T11:12:29;94412.63;;;14.17;25.84
39681;BME280;26327;42.550;23.120;2024-01-30T11:15:13;94414.94;;;14.04;26.96
39681;BME280;26327;42.550;23.120;2024-01-30T11:20:21;94433.44;;;14.43;25.62
39681;BME280;26327;42.550;23.120;2024-01-30T11:22:50;94414.44;;;14.73;25.10
39681;BME280;26327;42.550;23.120;2024-01-30T11:25:17;94456.84;;;15.16;24.81
39681;BME280;26327;42.550;23.120;2024-01-30T11:31:06;94411.19;;;13.98;25.95
39681;BME280;26327;42.550;23.120;2024-01-30T11:37:03;94367.72;;;13.97;25.93
39681;BME280;26327;42.550;23.120;2024-01-30T11:39:32;94449.72;;;13.96;26.17
39681;BME280;26327;42.550;23.120;2024-01-30T11:41:58;94450.78;;;13.61;26.95
39681;BME280;26327;42.550;23.120;2024-01-30T11:44:24;94402.34;;;13.83;25.90
39681;BME280;26327;42.550;23.120;2024-01-30T11:46:50;94408.56;;;13.74;26.50
39681;BME280;26327;42.550;23.120;2024-01-30T11:49:16;94412.81;;;14.07;25.99
39681;BME280;26327;42.550;23.120;2024-01-30T11:51:48;94451.72;;;14.75;25.92
39681;BME280;26327;42.550;23.120;2024-01-30T11:54:17;94424.13;;;13.41;26.49
39681;BME280;26327;42.550;23.120;2024-01-30T11:56:43;94440.75;;;14.07;26.76
39681;BME280;26327;42.550;23.120;2024-01-30T11:59:08;94388.31;;;14.25;25.72
39681;BME280;26327;42.550;23.120;2024-01-30T12:01:34;94397.06;;;14.80;25.66
39681;BME280;26327;42.550;23.120;2024-01-30T12:03:59;94382.59;;;14.29;25.89
39681;BME280;26327;42.550;23.120;2024-01-30T12:06:25;94383.56;;;14.36;26.07
39681;BME280;26327;42.550;23.120;2024-01-30T12:09:01;94414.13;;;14.03;26.45
39681;BME280;26327;42.550;23.120;2024-01-30T12:11:29;94425.72;;;14.58;25.48
39681;BME280;26327;42.550;23.120;2024-01-30T12:13:55;94412.97;;;14.63;25.84
39681;BME280;26327;42.550;23.120;2024-01-30T12:16:21;94366.84;;;14.78;25.30
39681;BME280;26327;42.550;23.120;2024-01-30T12:18:47;94368.00;;;14.59;25.94
39681;BME280;26327;42.550;23.120;2024-01-30T12:21:12;94407.88;;;14.77;25.74
39681;BME280;26327;42.550;23.120;2024-01-30T12:23:41;94378.22;;;14.93;25.56
39681;BME280;26327;42.550;23.120;2024-01-30T12:26:06;94405.50;;;14.99;25.82
39681;BME280;26327;42.550;23.120;2024-01-30T12:28:33;94349.41;;;15.32;25.17
39681;BME280;26327;42.550;23.120;2024-01-30T12:31:04;94391.25;;;14.22;25.66
39681;BME280;26327;42.550;23.120;2024-01-30T12:33:30;94390.09;;;14.08;26.64
39681;BME280;26327;42.550;23.120;2024-01-30T12:35:57;94383.72;;;13.78;26.40
39681;BME280;26327;42.550;23.120;2024-01-30T12:38:24;94390.44;;;14.45;26.20
39681;BME280;26327;42.550;23.120;2024-01-30T12:40:53;94338.97;;;14.05;26.34
39681;BME280;26327;42.550;23.120;2024-01-30T12:43:19;94390.09;;;13.83;26.87
39681;BME280;26327;42.550;23.120;2024-01-30T12:45:45;94351.41;;;13.87;26.44
39681;BME280;26327;42.550;23.120;2024-01-30T12:48:10;94338.78;;;13.26;27.20
39681;BME280;26327;42.550;23.120;2024-01-30T12:50:35;94388.75;;;13.55;27.10
39681;BME280;26327;42.550;23.120;2024-01-30T12:53:01;94345.63;;;13.35;26.50
39681;BME280;26327;42.550;23.120;2024-01-30T12:55:26;94384.13;;;12.90;27.54
39681;BME280;26327;42.550;23.120;2024-01-30T12:57:54;94331.16;;;12.04;28.39
39681;BME280;26327;42.550;23.120;2024-01-30T13:00:20;94382.03;;;12.16;28.69
39681;BME280;26327;42.550;23.120;2024-01-30T13:02:45;94371.09;;;11.87;29.18
39681;BME280;26327;42.550;23.120;2024-01-30T13:05:10;94314.97;;;11.92;28.43